ADDS TAF Board (Experimental) INFO Settings
IDs: Format: Expanded Condensed

KSLC - Salt Lake City Intl, UT, US

Issued at 1723 UTC 06 Feb 2016
Updated at: 2030 UTC 06 Feb 2016
Time1953Z 06/21Z 06/22Z 06/23Z 07/00Z 07/01Z 07/02Z 07/03Z 07/04Z 07/05Z 07/06Z 07/07Z 07/08Z 07/09Z
Type OBS PRVL PRVL PRVL PRVL PRVL PRVL PRVL PRVL PRVL PRVL PRVL PRVL PRVL
VIS 10 >6 >6 >6 >6 >6 >6 >6 >6 >6 >6 >6 >6 >6
CIG -- 200 200 200 200 200 200 -- -- -- -- -- -- --
Cover SCT BKN BKN BKN BKN BKN BKN SCT SCT SCT SCT SCT SCT SCT
FltCat VFR VFR VFR VFR VFR VFR VFR VFR VFR VFR VFR VFR VFR VFR
WX -- -- -- -- -- -- -- -- -- -- -- -- -- --
WDir 200 330 330 330 330 330 330 150 150 150 150 150 150 150
WSpd 3 6 6 6 6 6 6 5 5 5 5 5 5 5
WGst -- -- -- -- -- -- -- -- -- -- -- -- -- --
R14/32
XWnd -2 -0 -0 -0 -0 -0 -0 0 0 0 0 0 0 0
HWnd 2 -6 -6 -6 -6 -6 -6 5 5 5 5 5 5 5
R16/34
XWnd -1 -3 -3 -3 -3 -3 -3 2 2 2 2 2 2 2
HWnd 3 -5 -5 -5 -5 -5 -5 5 5 5 5 5 5 5
R17/35
XWnd -1 -3 -3 -3 -3 -3 -3 3 3 3 3 3 3 3
HWnd 3 -5 -5 -5 -5 -5 -5 4 4 4 4 4 4 4
RHB/18
XWnd 1 3 3 3 3 3 3 -3 -3 -3 -3 -3 -3 -3
HWnd -3 5 5 5 5 5 5 -4 -4 -4 -4 -4 -4 -4

NOTE: TEMPO conditions in [brackets]. Keep in mind TEMPO conditions might be better (lower impact) than prevailing conditions.

Raw TAF
KSLC 061723Z 0618/0724 15007KT P6SM FEW120 SCT200
  FM062000 33006KT P6SM SCT090 BKN200
  FM070300 15005KT P6SM SCT090 SCT200
  FM071000 15005KT 6SM BR SCT090 SCT200
  FM071800 35006KT P6SM SCT090 SCT200


Raw METAR
KSLC 061953Z 20003KT 10SM FEW070 SCT200 03/M06 A3051 RMK AO2 SLP350 T00281061
KSLC 061853Z 15008KT 10SM SCT200 01/M06 A3052 RMK AO2 SLP354 T00111061
KSLC 061753Z 18005KT 9SM SCT200 M01/M07 A3055 RMK AO2 SLP366 4/003 T10111067 10000 21056 51014

METAR Board
Radar Display
Forecast Discussion

TAF Board Legend

Potential Impact
Threat None Slight Moderate High
Visibility (sm) ≥5.1 5.1>X≥3 3>X≥1 <1
Ceiling (100 ft) ≥30.1 30.1>X≥10 10>X≥5 <5
Wind Speed (kt) <10 10≤X<20 20≤X<30 ≥30
Wind Gust (kt) <15 15≤X<25 25≤X<35 ≥35
Weather No Wx Reported VCTS,-TS,-FZRA,SN TS,FZRA +TS,+FZRA,+SN